Walburg, Texas
Current Conditions -  °F | °C
As of 6:52 PM on Wednesday 22 Oct 2014 (Local Time) from KGTU Reporting Station
Clear Clear  
Wind Chill: 75°   Ceiling: Unl
Heat Index: 75°   Visibility: 10mi
Dew Point: 59°   Wind: 3mph
Humidity: 57%   Direction: 60°ENE
Pressure: 30.07"   Gusts: NA
Location:  30.74°N, 97.58°W
Report Text: KGTU 222352Z 06003KT 10SM CLR 24/15 A3007
Loading
Personal Weather Stations






























Interactive Weather Map
Tropical Storm Tracking
New forecast layout! Learn more

10-Day Weather Forecast

Advertisements
Track Severe Weather on mobile